NCAR-RAP Real-Time Weather Data

Output produced by METARs form (14 October 2019  22:33 UTC)
found at http://weather.rap.ucar.edu/surface/
 
KNEW 142153Z 05013KT 10SM BKN050 BKN120 26/22 A3002 RMK AO2 SLP159 T02560217
KNEW 142053Z 02013KT 10SM OVC039 27/22 A3001 RMK AO2 SLP156 T02670217 56012
KNEW 141953Z 02012KT 10SM SCT047 OVC060 26/22 A3002 RMK AO2 SLP158 T02610217
KNEW 141853Z 02012KT 10SM BKN050 OVC060 26/22 A3003 RMK AO2 SLP161 T02610217
KNEW 141753Z 03010KT 10SM CLR 27/23 A3005 RMK AO2 SLP168 T02720228 10272 20222 58007
KNEW 141653Z COR 03010KT 10SM BKN085 26/22 A3007 RMK AO2 SLP176 T02610217
KNEW 141553Z 02009KT 10SM CLR 26/21 A3007 RMK AO2 SLP176 T02560211
KNEW 141453Z 04007KT 10SM BKN090 24/21 A3007 RMK AO2 SLP175 T02440211 53011
KNEW 141353Z 06007KT 10SM CLR 24/21 A3005 RMK AO2 SLP170 T02390206
KNEW 141253Z 09006KT 10SM BKN090 BKN110 23/21 A3004 RMK AO2 SLP165 T02280206
KNEW 141153Z 08005KT 10SM CLR 22/19 A3004 RMK AO2 SLP164 60000 T02220194 10228 20222 53006
KNEW 141053Z AUTO 08007KT 10SM CLR 22/19 A3003 RMK AO2 SLP162 T02220194
KNEW 140953Z AUTO 08006KT 10SM CLR 23/20 A3002 RMK AO2 SLP158 T02280200
KNEW 140853Z AUTO 06007KT 10SM CLR 23/20 A3002 RMK AO2 RAE09 SLP158 P0000 60000 T02280200 57007
KNEW 140753Z AUTO 08009KT 10SM -RA FEW090 23/19 A3002 RMK AO2 RAB0658E07B51 SLP160 P0000 T02280194
KNEW 140653Z AUTO 09007KT 10SM SCT090 23/18 A3003 RMK AO2 RAB02E10 SLP163 P0000 T02280183
KNEW 140553Z AUTO 08009KT 10SM BKN095 22/18 A3004 RMK AO2 RAB06E32 SLP165 P0000 60000 T02220183 10261 20222 402610200 50000
KNEW 140453Z AUTO 07011KT 10SM CLR 23/18 A3005 RMK AO2 RAE33 SLP168 P0000 T02280183
KNEW 140419Z AUTO 08011KT 10SM -RA SCT019 23/18 A3004 RMK AO2 P0000 T02280183
KNEW 140409Z AUTO 07012KT 10SM -RA BKN019 23/18 A3004 RMK AO2 P0000 T02280183
KNEW 140353Z AUTO 07012KT 10SM -RA FEW018 23/18 A3004 RMK AO2 SLP167 P0000 T02330183
KNEW 140253Z AUTO 08012KT 10SM -RA CLR 24/19 A3004 RMK AO2 SLP165 P0000 60000 T02390189 51010
KNEW 140153Z AUTO 06015KT 10SM -RA CLR 24/19 A3003 RMK AO2 RAB11 SLP164 P0000 T02440189
KNEW 140053Z 01004KT 10SM CLR 26/20 A3002 RMK AO2 SLP160 T02560200
KNEW 132353Z 00000KT 10SM CLR 26/20 A3001 RMK AO2 SLP155 T02560200 10261 20244 53006
KNEW 132253Z 30004KT 10SM CLR 26/20 A2999 RMK AO2 SLP150 T02560200
KNEW 132153Z 30003KT 10SM CLR 26/20 A2999 RMK AO2 SLP148 T02560200
KNEW 132053Z 30005KT 10SM CLR 25/19 A2999 RMK AO2 SLP150 T02500194 55015
KNEW 131953Z 30006KT 10SM CLR 25/19 A2999 RMK AO2 SLP149 T02500194
KNEW 131853Z 34004KT 10SM CLR 25/19 A3002 RMK AO2 SLP157 T02500194
KNEW 131753Z 35004KT 10SM CLR 25/19 A3004 RMK AO2 SLP164 T02500194 10250 20206 58010
KNEW 131653Z 02005KT 10SM CLR 24/19 A3005 RMK AO2 SLP171 T02440194
KNEW 131621Z 04006KT 10SM SCT018 23/18 A3006 RMK AO2 T02330183
KNEW 131553Z 04007KT 10SM BKN016 23/18 A3007 RMK AO2 SLP174 T02280178
KNEW 131548Z 05007KT 10SM FEW012 BKN018 23/18 A3007 RMK AO2
KNEW 131453Z 05005KT 10SM OVC012 22/18 A3007 RMK AO2 SLP177 T02170183 53005
KNEW 131353Z 04007KT 10SM OVC012 21/18 A3007 RMK AO2 SLP176 T02110178
KNEW 131253Z 02008KT 10SM OVC013 21/18 A3006 RMK AO2 SLP172 T02060178
KNEW 131153Z 35006KT 10SM OVC012 21/18 A3006 RMK AO2 SLP172 T02060178 10206 20200 53018
KNEW 131053Z AUTO 36005KT 10SM OVC012 21/18 A3003 RMK AO2 SLP163 T02060178
KNEW 130953Z AUTO 35003KT 10SM OVC012 21/17 A3002 RMK AO2 SLP159 T02060172
KNEW 130853Z AUTO 01006KT 10SM OVC013 20/17 A3001 RMK AO2 SLP154 T02000167 52002
KNEW 130753Z AUTO 03004KT 10SM OVC014 21/17 A3001 RMK AO2 SLP154 T02060167
KNEW 130703Z AUTO 05005KT 10SM OVC014 21/16 A3000 RMK AO2 T02060161
KNEW 130653Z AUTO 06005KT 10SM OVC015 20/16 A3000 RMK AO2 SLP153 T02000161
KNEW 130605Z AUTO 08007KT 10SM BKN016 20/16 A3000 RMK AO2 T02000156
KNEW 130553Z AUTO 07008KT 10SM BKN014 20/16 A3000 RMK AO2 SLP152 T02000156 10233 20200 402500172 56010
KNEW 130519Z AUTO 07008KT 10SM BKN012 21/16 A3001 RMK AO2 T02060161
KNEW 130453Z AUTO 04009KT 10SM FEW014 21/17 A3002 RMK AO2 SLP157 T02060167
KNEW 130451Z AUTO 05008KT 10SM SCT014 21/17 A3001 RMK AO2
KNEW 130419Z AUTO 08008KT 10SM BKN014 21/17 A3002 RMK AO2 T02060167
KNEW 130353Z AUTO 06008KT 10SM FEW017 21/16 A3003 RMK AO2 SLP162 T02060161
KNEW 130253Z AUTO 05011KT 10SM CLR 21/16 A3003 RMK AO2 SLP163 T02110161 58000
KNEW 130153Z 04012KT 10SM CLR 22/16 A3004 RMK AO2 SLP166 T02170161
KNEW 130053Z 04012KT 10SM CLR 23/16 A3004 RMK AO2 SLP166 T02280161
KNEW 122353Z 02006KT 10SM BKN031 23/16 A3003 RMK AO2 SLP164 T02330161 10250 20217 51003
KNEW 122253Z 35006KT 10SM SCT031 24/16 A3003 RMK AO2 SLP163 T02440161